• Join FlightAware (Why Join?)
  • Login
  • US Flag 
04:22AM EDT


 

Airport Tracker/Info


-or-


 

Live Flight TrackerFlight Track Log ✈ BJS339 ✈ 12-Jun-2014 ✈ KPWK - KSMO

Flight Track Log - Related Links

Times and Time Zones

All times are in EDT time to prevent confusion due to time zone crossing. See the BJS339 flight status page for this flight to view local times or setup timezone preferences in your user account.

Time Position Orientation Groundspeed Altitude Reporting Facility
EDT Latitude Longitude Course Direction KTS MPH feet Rate Location/Type
01:05PM 42.1514 -87.9603 278° West 191 220 2,900  Level Chicago Center
01:06PM 42.1597 -88.0403 278° West 199 229 4,000 660 Climbing Chicago Center
01:07PM 42.1181 -88.0958 225° Southwest 238 274 4,300 1,200 Climbing Chicago Center
01:08PM 42.0697 -88.1644 227° Southwest 238 274 6,500 2,400 Climbing Chicago Center
01:09PM 42.0267 -88.2422 233° Southwest 255 293 9,300 2,880 Climbing Chicago Center
01:10PM 41.9869 -88.3397 241° Southwest 276 318 12,500 2,880 Climbing Chicago Center
01:11PM 41.9483 -88.4367 242° Southwest 293 337 15,300 2,460 Climbing Chicago Center
01:12PM 41.9075 -88.5375 241° Southwest 305 351 17,700 2,160 Climbing Chicago Center
01:13PM 41.8739 -88.6628 250° West 332 382 19,900 2,040 Climbing Chicago Center
01:14PM 41.8503 -88.7892 256° West 346 398 22,000 1,920 Climbing Chicago Center
01:15PM 41.8264 -88.9164 256° West 349 402 23,900 1,860 Climbing Chicago Center
01:17PM 41.8028 -89.0453 256° West 355 409 25,900 1,800 Climbing Chicago Center
01:18PM 41.7792 -89.1697 256° West 351 404 27,700 1,680 Climbing Chicago Center
01:19PM 41.7506 -89.3272 256° West 361 415 29,400 1,440 Climbing Chicago Center
01:20PM 41.7256 -89.4575 256° West 362 417 30,700 1,140 Climbing Chicago Center
01:21PM 41.7006 -89.5886 256° West 365 420 31,800 1,020 Climbing Chicago Center
01:22PM 41.6733 -89.7244 255° West 373 429 32,900 960 Climbing Chicago Center
01:23PM 41.6336 -89.8517 247° West 374 430 33,900 1,080 Climbing Chicago Center
01:24PM 41.5853 -90.0022 247° West 372 428 35,200 1,140 Climbing Chicago Center
01:25PM 41.5461 -90.1211 246° West 360 414 36,300 900 Climbing Chicago Center
01:27PM 41.4772 -90.3361 247° West 347 399 38,000 540 Climbing Kansas City Center
01:28PM 41.4328 -90.4753 247° West 347 399 38,000  Level Chicago Center
01:29PM 41.3922 -90.5969 246° West 358 412 38,000  Level Chicago Center
01:30PM 41.3403 -90.7517 246° West 376 433 38,000  Level Chicago Center
01:31PM 41.2978 -90.8800 246° West 379 436 38,000  Level Chicago Center
01:32PM 41.2533 -91.0100 246° West 383 441 38,000  Level Chicago Center
01:33PM 41.2100 -91.1389 246° West 383 441 38,000  Level Chicago Center
01:34PM 41.1656 -91.2708 246° West 388 447 38,000  Level Chicago Center
01:35PM 41.1128 -91.4286 246° West 390 449 38,000  Level Chicago Center
01:36PM 41.0672 -91.5597 245° Southwest 391 450 38,000  Level Chicago Center
01:37PM 41.0267 -91.6786 246° West 391 450 38,000  Level Chicago Center
01:38PM 40.9731 -91.8358 246° West 393 452 38,000  Level Chicago Center
01:39PM 40.9272 -91.9661 245° Southwest 394 453 38,000  Level Chicago Center
01:40PM 40.8828 -92.0950 246° West 393 452 38,000  Level Chicago Center
01:42PM 40.7914 -92.3564 245° Southwest 394 453 38,000  Level Minneapolis Center
01:43PM 40.7361 -92.5128 245° Southwest 395 455 38,000  Level Chicago Center
01:44PM 40.6894 -92.6447 245° Southwest 397 457 38,000  Level Chicago Center
01:46PM 40.6428 -92.7775 245° Southwest 403 464 38,000  Level Chicago Center
01:46PM 40.5953 -92.9092 245° Southwest 401 461 38,000  Level Kansas City Center
01:47PM 40.5472 -93.0411 244° Southwest 402 463 38,000  Level Kansas City Center
01:48PM 40.4997 -93.1722 245° Southwest 402 463 38,000  Level Kansas City Center
01:49PM 40.4533 -93.3061 246° West 403 464 38,000  Level Kansas City Center
01:51PM 40.4350 -93.4833 262° West 407 468 38,000  Level Kansas City Center
01:52PM 40.4228 -93.6331 264° West 413 475 38,000  Level Kansas City Center
01:53PM 40.4083 -93.8136 264° West 413 475 38,000  Level Minneapolis Center
01:54PM 40.3964 -93.9644 264° West 414 476 38,000  Level Minneapolis Center
01:55PM 40.3856 -94.1158 265° West 415 478 38,000  Level Minneapolis Center
01:56PM 40.3733 -94.2644 264° West 417 480 38,000  Level Kansas City Center
01:57PM 40.3608 -94.4142 264° West 417 480 38,000  Level Kansas City Center
01:58PM 40.3481 -94.5628 264° West 417 480 38,000  Level Kansas City Center
01:59PM 40.3364 -94.7128 264° West 417 480 38,000  Level Kansas City Center
02:00PM 40.3203 -94.9042 264° West 416 479 38,000  Level Minneapolis Center
02:01PM 40.3064 -95.0556 263° West 416 479 38,000  Level Minneapolis Center
02:02PM 40.2933 -95.2069 264° West 416 479 38,000  Level Minneapolis Center
02:03PM 40.2789 -95.3608 263° West 418 481 38,000  Level Minneapolis Center
02:04PM 40.2650 -95.5139 263° West 420 483 38,000  Level Minneapolis Center
02:05PM 40.2506 -95.6656 263° West 421 484 38,000  Level Minneapolis Center
02:06PM 40.2339 -95.8458 263° West 420 483 38,000  Level Minneapolis Center
02:07PM 40.2197 -95.9964 263° West 420 483 38,000  Level Minneapolis Center
02:08PM 40.2047 -96.1492 263° West 420 483 38,000  Level Minneapolis Center
02:09PM 40.1836 -96.2994 260° West 419 482 38,000  Level Minneapolis Center
02:10PM 40.1461 -96.4494 252° West 421 484 38,000  Level Minneapolis Center
02:11PM 40.1144 -96.5972 254° West 421 484 38,000  Level Minneapolis Center
02:12PM 40.0825 -96.7453 254° West 421 484 38,000  Level Minneapolis Center
02:13PM 40.0436 -96.9203 254° West 421 484 38,000  Level Minneapolis Center
02:14PM 40.0117 -97.0675 254° West 421 484 38,000  Level Minneapolis Center
02:15PM 39.9778 -97.2158 253° West 421 484 38,000  Level Minneapolis Center
02:17PM 39.9450 -97.3642 254° West 422 486 38,000  Level Minneapolis Center
02:18PM 39.9114 -97.5119 254° West 423 487 38,000  Level Minneapolis Center
02:19PM 39.8778 -97.6606 254° West 423 487 38,000  Level Minneapolis Center
02:20PM 39.8364 -97.8378 253° West 423 487 38,000  Level Minneapolis Center
02:21PM 39.8031 -97.9817 253° West 424 488 38,000  Level Minneapolis Center
02:22PM 39.7703 -98.1306 254° West 424 488 38,000  Level Minneapolis Center
02:23PM 39.7347 -98.2797 253° West 426 490 38,000  Level Minneapolis Center
02:24PM 39.7011 -98.4286 254° West 426 490 38,000  Level Minneapolis Center
02:25PM 39.6667 -98.5775 253° West 427 491 38,000  Level Minneapolis Center
02:26PM 39.6281 -98.7606 255° West 430 495 38,000  Level Minneapolis Center
02:27PM 39.5942 -98.8656 247° West 432 497 38,000  Level Denver Center
02:28PM 39.5550 -99.0314 253° West 432 497 38,000  Level Denver Center
02:29PM 39.5203 -99.1731 252° West 432 497 38,000  Level Denver Center
02:30PM 39.4800 -99.3372 252° West 431 496 38,000  Level Denver Center
02:31PM 39.4458 -99.4772 253° West 431 496 38,000  Level Denver Center
02:32PM 39.4114 -99.6161 252° West 430 495 38,000  Level Denver Center
02:33PM 39.3706 -99.7792 252° West 430 495 38,000  Level Denver Center
02:34PM 39.3364 -99.9183 252° West 428 493 38,000  Level Denver Center
02:35PM 39.2950 -100.0781 252° West 426 490 38,000  Level Denver Center
02:36PM 39.2600 -100.2186 252° West 424 488 38,000  Level Denver Center
02:37PM 39.2247 -100.3844 255° West 426 490 38,000  Level Denver Center
02:38PM 39.1944 -100.5281 255° West 430 495 38,000  Level Denver Center
02:39PM 39.1589 -100.6964 255° West 433 498 38,000  Level Denver Center
02:40PM 39.1286 -100.8383 255° West 433 498 38,000  Level Denver Center
02:41PM 39.0922 -101.0031 254° West 432 497 38,000  Level Denver Center
02:42PM 39.0622 -101.1464 255° West 432 497 38,000  Level Denver Center
02:43PM 39.0269 -101.3064 254° West 432 497 38,000  Level Denver Center
02:44PM 38.9964 -101.4461 254° West 430 495 38,000  Level Denver Center
02:45PM 38.9603 -101.6092 254° West 429 494 38,000  Level Denver Center
02:46PM 38.9289 -101.7483 254° West 427 491 38,000  Level Denver Center
02:47PM 38.8925 -101.9108 254° West 426 490 38,000  Level Denver Center
02:48PM 38.8614 -102.0497 254° West 426 490 38,000  Level Denver Center
02:49PM 38.8247 -102.2125 254° West 426 490 38,000  Level Denver Center
02:50PM 38.7922 -102.3500 253° West 425 489 38,000  Level Denver Center
02:52PM 38.7561 -102.5119 254° West 425 489 38,000  Level Denver Center
02:53PM 38.7231 -102.6503 253° West 425 489 38,000  Level Denver Center
02:54PM 38.6867 -102.8072 254° West 425 489 38,000  Level Denver Center
02:55PM 38.6522 -102.9511 253° West 424 488 38,000  Level Denver Center
02:56PM 38.6189 -103.0933 253° West 421 484 38,000  Level Denver Center
02:57PM 38.5853 -103.2369 253° West 420 483 38,000  Level Denver Center
02:58PM 38.5458 -103.4028 253° West 419 482 38,000  Level Denver Center
02:59PM 38.5139 -103.5344 253° West 422 486 38,000  Level Denver Center
03:00PM 38.4792 -103.6781 253° West 425 489 38,000  Level Denver Center
03:01PM 38.4369 -103.8522 253° West 427 491 38,000  Level Denver Center
03:02PM 38.4017 -103.9950 253° West 428 493 38,000  Level Denver Center
03:03PM 38.3669 -104.1378 253° West 427 491 38,000  Level Denver Center
03:04PM 38.3328 -104.2728 252° West 423 487 38,000  Level Denver Center
03:05PM 38.2956 -104.4203 252° West 423 487 38,000  Level Denver Center
03:06PM 38.2339 -104.5803 244° Southwest 422 486 38,000  Level Denver Center
03:07PM 38.1811 -104.7125 243° Southwest 422 486 38,000  Level Denver Center
03:08PM 38.1281 -104.8433 243° Southwest 422 486 38,000  Level Denver Center
03:09PM 38.0747 -104.9758 243° Southwest 422 486 38,000  Level Denver Center
03:10PM 38.0225 -105.1067 243° Southwest 422 486 38,000  Level Denver Center
03:11PM 37.9589 -105.2625 243° Southwest 421 484 38,000  Level Denver Center
03:12PM 37.9042 -105.3922 242° Southwest 420 483 38,000  Level Denver Center
03:13PM 37.8528 -105.5208 243° Southwest 419 482 38,000  Level Denver Center
03:14PM 37.7992 -105.6506 242° Southwest 417 480 38,000  Level Denver Center
03:15PM 37.7447 -105.7786 242° Southwest 417 480 38,000  Level Denver Center
03:16PM 37.6994 -105.9094 246° West 415 478 38,000  Level Denver Center
03:17PM 37.6636 -106.0717 254° West 404 465 38,000  Level Denver Center
03:18PM 37.6353 -106.1967 254° West 404 465 38,000  Level Denver Center
03:19PM 37.6011 -106.3469 254° West 403 464 38,000  Level Denver Center
03:20PM 37.5733 -106.4781 255° West 403 464 38,000  Level Denver Center
03:22PM 37.5364 -106.6306 253° West 405 466 38,000  Level Denver Center
03:23PM 37.5067 -106.7619 254° West 405 466 38,000  Level Denver Center
03:24PM 37.4711 -106.9167 254° West 408 470 38,000  Level Denver Center
03:25PM 37.4400 -107.0483 253° West 409 471 38,000  Level Denver Center
03:26PM 37.4042 -107.2028 254° West 410 472 38,000  Level Denver Center
03:27PM 37.3739 -107.3342 254° West 410 472 38,000  Level Denver Center
03:28PM 37.3381 -107.4856 253° West 409 471 38,000  Level Denver Center
03:29PM 37.3064 -107.6158 253° West 408 470 38,000  Level Denver Center
03:30PM 37.2706 -107.7672 253° West 407 468 38,000  Level Denver Center
03:31PM 37.2389 -107.8958 253° West 407 468 38,000  Level Denver Center
03:32PM 37.2033 -108.0475 254° West 407 468 38,000  Level Denver Center
03:33PM 37.1719 -108.1758 253° West 405 466 38,000  Level Denver Center
03:34PM 37.1356 -108.3253 253° West 402 463 38,000  Level Denver Center
03:35PM 37.1039 -108.4542 253° West 402 463 38,000  Level Denver Center
03:36PM 37.0672 -108.6031 253° West 403 464 38,000  Level Denver Center
03:37PM 37.0356 -108.7300 253° West 403 464 38,000  Level Denver Center
03:38PM 36.9981 -108.8767 252° West 401 461 38,000  Level Denver Center
03:39PM 36.9658 -109.0042 252° West 401 461 38,000  Level Denver Center
03:40PM 36.9286 -109.1539 253° West 402 463 38,000  Level Denver Center
03:41PM 36.8958 -109.2833 252° West 406 467 38,000  Level Denver Center
03:42PM 36.8564 -109.4339 252° West 410 472 38,000  Level Denver Center
03:43PM 36.8239 -109.5622 252° West 409 471 38,000  Level Denver Center
03:44PM 36.7897 -109.6914 252° West 409 471 38,000  Level Denver Center
03:45PM 36.7503 -109.8414 252° West 409 471 38,000  Level Denver Center
03:46PM 36.7181 -109.9683 252° West 406 467 38,000  Level Denver Center
03:47PM 36.6775 -110.1186 251° West 409 471 38,000  Level Denver Center
03:48PM 36.6433 -110.2494 252° West 408 470 38,000  Level Denver Center
03:49PM 36.6078 -110.3833 252° West 408 470 38,000  Level Denver Center
03:51PM 36.5722 -110.5158 252° West 407 468 38,000  Level Denver Center
03:52PM 36.5286 -110.6769 251° West 407 468 38,000  Level Denver Center
03:53PM 36.4917 -110.8114 251° West 408 470 38,000  Level Denver Center
03:54PM 36.4575 -110.9433 252° West 407 468 38,000  Level Denver Center
03:55PM 36.4200 -111.0764 251° West 407 468 38,000  Level Denver Center
03:56PM 36.3842 -111.2094 252° West 407 468 38,000  Level Denver Center
03:57PM 36.3461 -111.3433 251° West 408 470 38,000  Level Denver Center
03:58PM 36.3017 -111.5056 251° West 408 470 38,000 -60 Level Denver Center
03:59PM 36.2639 -111.6392 251° West 409 471 37,900 -540 Descending Denver Center
04:00PM 36.2336 -111.7475 251° West 412 474 37,100 -1,020 Descending Los Angeles Center
04:01PM 36.1958 -111.8794 251° West 411 473 36,100 -540 Descending Los Angeles Center
04:02PM 36.1572 -112.0183 251° West 407 468 36,000 -60 Descending Los Angeles Center
04:03PM 36.1194 -112.1508 251° West 406 467 36,000  Level Los Angeles Center
04:04PM 36.0825 -112.2797 251° West 413 475 36,000  Level Los Angeles Center
04:05PM 36.0369 -112.4400 251° West 413 475 36,000  Level Los Angeles Center
04:06PM 35.9981 -112.5750 250° West 414 476 36,000  Level Los Angeles Center
04:07PM 35.9592 -112.7092 250° West 415 478 36,000  Level Los Angeles Center
04:08PM 35.9194 -112.8467 250° West 415 478 36,000  Level Los Angeles Center
04:09PM 35.8808 -112.9803 250° West 416 479 36,000  Level Los Angeles Center
04:10PM 35.8408 -113.1142 250° West 416 479 36,000  Level Los Angeles Center
04:11PM 35.7933 -113.2744 250° West 417 480 36,000  Level Los Angeles Center
04:12PM 35.7553 -113.4083 251° West 417 480 36,000  Level Los Angeles Center
04:13PM 35.7142 -113.5425 249° West 421 484 36,000  Level Los Angeles Center
04:14PM 35.6739 -113.6772 250° West 421 484 36,000  Level Los Angeles Center
04:15PM 35.6328 -113.8106 249° West 421 484 36,000  Level Los Angeles Center
04:16PM 35.5836 -113.9731 250° West 422 486 36,000  Level Los Angeles Center
04:17PM 35.5433 -114.1061 250° West 420 483 36,000  Level Los Angeles Center
04:18PM 35.5025 -114.2408 250° West 422 486 36,000  Level Los Angeles Center
04:19PM 35.4614 -114.3717 249° West 422 486 36,000  Level Los Angeles Center
04:20PM 35.4114 -114.5347 249° West 424 488 36,000 -120 Level Los Angeles Center
04:21PM 35.3686 -114.6708 249° West 425 489 35,800 -780 Descending Los Angeles Center
04:22PM 35.3253 -114.8092 249° West 431 496 34,400 -900 Descending Los Angeles Center
04:23PM 35.2853 -114.9428 250° West 424 488 34,000 -300 Descending Los Angeles Center
04:24PM 35.2422 -115.0767 249° West 422 486 33,900 -540 Descending Los Angeles Center
04:25PM 35.1992 -115.2169 249° West 432 497 32,900 -960 Descending Los Angeles Center
04:27PM 35.1517 -115.3653 249° West 434 499 32,000 -480 Descending Los Angeles Center
04:28PM 35.1103 -115.4975 249° West 424 488 32,000  Level Los Angeles Center
04:29PM 35.0664 -115.6336 249° West 425 489 32,000  Level Los Angeles Center
04:30PM 35.0225 -115.7708 249° West 431 496 32,000 -540 Level Los Angeles Center
04:31PM 34.9692 -115.9353 248° West 433 498 31,000 -1,320 Descending Los Angeles Center
04:32PM 34.9247 -116.0717 248° West 435 501 29,300 -1,740 Descending Los Angeles Center
04:33PM 34.8808 -116.2031 248° West 425 489 27,400 -1,800 Descending Los Angeles Center
04:34PM 34.8400 -116.3322 249° West 414 476 25,700 -1,620 Descending Los Angeles Center
04:35PM 34.7981 -116.4633 249° West 413 475 24,100 -1,740 Descending Los Angeles Center
04:36PM 34.7822 -116.6233 263° West 402 463 22,200 -1,680 Descending Los Angeles Center
04:37PM 34.7683 -116.7558 263° West 396 456 20,700 -1,260 Descending Los Angeles Center
04:38PM 34.7553 -116.8878 263° West 395 455 19,600 -1,020 Descending Los Angeles Center
04:39PM 34.7414 -117.0181 263° West 389 448 18,600 -1,020 Descending Los Angeles Center
04:40PM 34.7281 -117.1464 263° West 386 444 17,600 -900 Descending Los Angeles Center
04:41PM 34.7147 -117.2753 263° West 385 443 16,800 -840 Descending Los Angeles Center
04:42PM 34.7019 -117.4017 263° West 379 436 15,900 -1,380 Descending Los Angeles Center
04:43PM 34.6867 -117.5511 263° West 373 429 14,000 -1,200 Descending Los Angeles Center
04:44PM 34.6694 -117.6686 260° West 356 410 13,500 -540 Descending Los Angeles Center
04:45PM 34.6383 -117.7842 252° West 362 417 13,000 -600 Descending Los Angeles Center
04:46PM 34.6089 -117.8992 253° West 358 412 12,300 -1,020 Descending Los Angeles Center
04:47PM 34.5822 -118.0008 252° West 314 361 10,900 -1,440 Descending Los Angeles Center
04:48PM 34.5578 -118.0881 251° West 275 316 9,400 -1,440 Descending Los Angeles Center
04:49PM 34.5333 -118.1850 253° West 273 314 8,000 -720 Descending Los Angeles Center
04:50PM 34.5056 -118.2675 248° West 271 312 8,000  Level Los Angeles Center
04:51PM 34.4308 -118.3103 205° Southwest 279 321 8,000  Level Los Angeles Center
04:52PM 34.3536 -118.3019 175° South 276 318 8,000 -240 Level Los Angeles Center
04:53PM 34.3000 -118.3000 178° South 263 303 7,700 -660 Descending Southern California TRACON
04:54PM 34.2333 -118.2833 168° South 233 268 7,000 -780 Descending Southern California TRACON
04:55PM 34.1833 -118.2667 165° South 231 266 6,200 -720 Descending Southern California TRACON
04:56PM 34.1333 -118.3000 209° Southwest 206 237 5,600 -1,020 Descending Southern California TRACON
04:57PM 34.1189 -118.3203 229° Southwest 210 242 4,700 -1,980 Descending Los Angeles Center
04:58PM 34.0781 -118.3719 226° Southwest 188 216 2,500 -1,680 Descending Los Angeles Center
04:59PM 34.0531 -118.4064 229° Southwest 162 186 1,300 -960 Descending Los Angeles Center
05:00PM 34.0314 -118.4336 226° Southwest 133 153 500 -600 Descending Los Angeles Center
05:01PM 34.0081 -118.4653 228° Southwest 124 143 100 -420 Descending Los Angeles Center
05:03PM 34.0000 -118.4500 North  Level FlightAware Approximate